createdAt,value
2018-06-16T00:10:38.949Z,14.45
2018-06-16T00:13:12.701Z,12.73
2018-06-16T00:15:41.213Z,13.48
2018-06-16T00:18:09.629Z,14.05
2018-06-16T00:20:38.409Z,14.40
2018-06-16T00:23:07.297Z,15.10
2018-06-16T00:25:36.075Z,15.40
2018-06-16T00:28:04.917Z,14.83
2018-06-16T00:30:33.455Z,14.38
2018-06-16T00:36:08.875Z,12.90
2018-06-16T00:38:37.721Z,13.93
2018-06-16T00:41:06.140Z,14.63
2018-06-16T00:43:34.769Z,14.85
2018-06-16T00:46:03.162Z,14.45
2018-06-16T00:48:31.769Z,14.75
2018-06-16T00:51:00.086Z,13.50
2018-06-16T00:53:28.480Z,15.05
2018-06-16T00:55:57.397Z,13.25
2018-06-16T00:58:25.731Z,12.75
2018-06-16T01:00:54.034Z,12.85
2018-06-16T01:03:41.045Z,13.00
2018-06-16T01:06:09.337Z,13.43
2018-06-16T01:08:37.659Z,13.58
2018-06-16T01:11:06.091Z,14.87
2018-06-16T01:13:34.373Z,14.23
2018-06-16T01:16:02.663Z,14.38
2018-06-16T01:18:30.929Z,14.40
2018-06-16T01:20:59.205Z,14.23
2018-06-16T01:26:19.987Z,14.65
2018-06-16T01:28:48.345Z,15.05
2018-06-16T01:31:16.761Z,14.87
2018-06-16T01:33:45.145Z,14.23
2018-06-16T01:36:13.490Z,14.25
2018-06-16T01:38:41.789Z,14.68
2018-06-16T01:41:10.159Z,14.55
2018-06-16T01:43:38.515Z,12.90
2018-06-16T01:46:06.886Z,13.43
2018-06-16T01:48:35.269Z,13.58
2018-06-16T01:51:04.093Z,14.43
2018-06-16T01:59:17.740Z,13.85
2018-06-16T02:01:46.058Z,14.83
2018-06-16T02:04:14.409Z,14.98
2018-06-16T02:06:43.086Z,15.15
2018-06-16T02:09:12.889Z,14.75
2018-06-16T02:11:41.198Z,13.85
2018-06-16T02:14:11.097Z,15.10
2018-06-16T02:16:40.146Z,15.88
2018-06-16T02:19:08.578Z,14.63
2018-06-16T02:21:37.309Z,15.78
2018-06-16T02:24:06.477Z,14.90
2018-06-16T02:26:34.936Z,16.00
2018-06-16T02:29:04.033Z,14.10
2018-06-16T02:31:32.704Z,13.88
2018-06-16T02:34:01.433Z,14.43
2018-06-16T02:36:29.754Z,13.80
2018-06-16T02:38:59.309Z,13.40
2018-06-16T02:41:27.623Z,14.13
2018-06-16T02:43:55.956Z,14.13
2018-06-16T02:46:24.253Z,15.20
2018-06-16T02:48:52.587Z,15.00
2018-06-16T02:51:21.281Z,14.05
2018-06-16T02:53:49.611Z,15.25
2018-06-16T02:56:18.849Z,14.87
2018-06-16T02:58:47.169Z,15.30
2018-06-16T03:01:17.075Z,15.13
2018-06-16T03:03:45.661Z,13.88
2018-06-16T03:06:14.017Z,15.00
2018-06-16T03:08:42.541Z,14.18
2018-06-16T03:11:11.109Z,13.88
2018-06-16T03:13:39.588Z,15.28
2018-06-16T03:16:07.953Z,14.45
2018-06-16T03:18:36.314Z,16.50
2018-06-16T03:21:05.303Z,14.65
2018-06-16T03:23:38.737Z,14.38
2018-06-16T03:26:07.437Z,15.25
2018-06-16T03:28:35.709Z,14.83
2018-06-16T03:31:03.983Z,16.45
2018-06-16T03:33:37.481Z,16.93
2018-06-16T03:36:06.025Z,15.72
2018-06-16T03:38:34.897Z,15.20
2018-06-16T03:41:03.189Z,14.28
2018-06-16T03:49:26.185Z,17.07
2018-06-16T03:51:59.594Z,16.42
2018-06-16T03:54:28.119Z,15.78
2018-06-16T03:56:56.460Z,14.75
2018-06-16T03:59:24.751Z,13.62
2018-06-16T04:01:53.172Z,13.68
2018-06-16T04:04:21.445Z,14.10
2018-06-16T04:06:49.785Z,13.72
2018-06-16T04:09:18.677Z,13.55
2018-06-16T04:11:46.962Z,13.75
2018-06-16T04:14:15.237Z,14.33
2018-06-16T04:16:43.723Z,13.15
2018-06-16T04:19:12.063Z,13.72
2018-06-16T04:21:41.752Z,13.40
2018-06-16T04:24:10.210Z,13.05
2018-06-16T04:26:38.703Z,13.28
2018-06-16T04:29:07.105Z,12.25
2018-06-16T04:31:35.415Z,11.63
2018-06-16T04:34:17.551Z,11.95
2018-06-16T04:36:46.171Z,13.00
2018-06-16T04:39:14.494Z,12.10
2018-06-16T04:41:43.675Z,13.90
2018-06-16T04:44:12.029Z,11.75
2018-06-16T04:46:40.412Z,12.50
2018-06-16T04:49:08.829Z,12.82
2018-06-16T04:51:37.365Z,12.82
2018-06-16T04:54:05.785Z,12.23
2018-06-16T04:56:34.167Z,12.68
2018-06-16T04:59:02.566Z,12.63
2018-06-16T05:01:32.111Z,13.50
2018-06-16T05:04:09.981Z,14.63
2018-06-16T05:06:38.729Z,14.73
2018-06-16T05:09:09.155Z,13.62
2018-06-16T05:11:37.514Z,13.75
2018-06-16T05:14:06.397Z,14.25
2018-06-16T05:16:34.815Z,13.08
2018-06-16T05:19:03.777Z,14.45
2018-06-16T05:21:32.701Z,15.35
2018-06-16T05:24:06.635Z,14.60
2018-06-16T05:26:35.049Z,14.25
2018-06-16T05:29:03.469Z,13.48
2018-06-16T05:31:31.907Z,14.80
2018-06-16T05:37:02.473Z,13.68
2018-06-16T05:39:30.947Z,14.75
2018-06-16T05:41:59.425Z,13.32
2018-06-16T05:44:27.763Z,13.58
2018-06-16T05:46:56.097Z,14.98
2018-06-16T05:49:24.419Z,14.15
2018-06-16T05:51:53.411Z,13.28
2018-06-16T05:54:21.829Z,13.22
2018-06-16T05:56:50.356Z,14.45
2018-06-16T05:59:18.790Z,14.25
2018-06-16T06:01:47.080Z,13.75
2018-06-16T06:04:15.469Z,14.28
2018-06-16T06:06:43.829Z,15.05
2018-06-16T06:09:12.209Z,12.90
2018-06-16T06:11:41.057Z,13.10
2018-06-16T06:14:10.196Z,13.78
2018-06-16T06:16:39.120Z,15.30
2018-06-16T06:19:07.447Z,13.78
2018-06-16T06:21:35.815Z,13.98
2018-06-16T06:24:04.397Z,15.00
2018-06-16T06:26:32.835Z,14.90
2018-06-16T06:29:01.888Z,14.03
2018-06-16T06:31:30.996Z,14.20
2018-06-16T06:33:59.552Z,14.47
2018-06-16T06:36:27.998Z,14.05
2018-06-16T06:38:56.351Z,15.05
2018-06-16T06:41:25.589Z,13.85
2018-06-16T06:43:54.219Z,14.10
2018-06-16T06:46:23.153Z,14.47
2018-06-16T06:48:57.961Z,14.83
2018-06-16T06:51:26.551Z,15.88
2018-06-16T06:54:00.054Z,14.50
2018-06-16T06:56:28.517Z,15.48
2018-06-16T06:58:57.057Z,15.85
2018-06-16T07:01:25.839Z,15.70
2018-06-16T07:03:54.289Z,15.68
2018-06-16T07:06:22.661Z,14.47
2018-06-16T07:08:51.111Z,14.35
2018-06-16T07:11:24.273Z,13.45
2018-06-16T07:13:52.804Z,14.23
2018-06-16T07:16:21.375Z,14.23
2018-06-16T07:18:49.759Z,13.75
2018-06-16T07:21:18.417Z,12.75
2018-06-16T07:23:47.341Z,12.58
2018-06-16T07:26:16.360Z,14.07
2018-06-16T07:28:47.014Z,14.60
2018-06-16T07:31:15.490Z,14.35
2018-06-16T07:33:44.057Z,15.35
2018-06-16T07:36:12.645Z,13.85
2018-06-16T07:38:41.040Z,12.70
2018-06-16T07:41:09.841Z,13.85
2018-06-16T07:43:38.397Z,11.70
2018-06-16T07:46:06.979Z,11.48
2018-06-16T07:48:35.609Z,12.23
2018-06-16T07:51:04.277Z,12.85
2018-06-16T07:53:32.982Z,12.68
2018-06-16T07:56:01.420Z,12.37
2018-06-16T07:58:29.846Z,12.30
2018-06-16T08:00:58.691Z,11.80
2018-06-16T08:03:27.264Z,10.88
2018-06-16T08:05:55.800Z,12.43
2018-06-16T08:08:24.159Z,11.70
2018-06-16T08:10:52.687Z,12.18
2018-06-16T08:13:21.205Z,11.08
2018-06-16T08:15:51.165Z,10.85
2018-06-16T08:18:20.492Z,10.82
2018-06-16T08:20:52.283Z,9.75
2018-06-16T08:23:21.133Z,11.28
2018-06-16T08:25:50.027Z,11.05
2018-06-16T08:28:19.573Z,11.10
2018-06-16T08:30:48.695Z,10.88
2018-06-16T08:33:17.423Z,11.38
2018-06-16T08:35:45.831Z,10.85
2018-06-16T08:38:14.414Z,10.05
2018-06-16T08:40:42.864Z,10.58
2018-06-16T08:43:17.804Z,9.70
2018-06-16T08:45:46.365Z,9.85
2018-06-16T08:48:14.730Z,11.10
2018-06-16T08:50:43.410Z,10.38
2018-06-16T08:53:12.014Z,11.15
2018-06-16T08:55:40.516Z,11.10
2018-06-16T08:58:08.842Z,10.80
2018-06-16T09:00:37.316Z,13.08
2018-06-16T09:03:05.861Z,12.53
2018-06-16T09:05:34.611Z,11.50
2018-06-16T09:08:03.009Z,10.28
2018-06-16T09:10:32.429Z,10.38
2018-06-16T09:13:00.895Z,10.75
2018-06-16T09:15:29.395Z,10.90
2018-06-16T09:17:57.805Z,9.78
2018-06-16T09:20:26.353Z,9.90
2018-06-16T09:22:55.058Z,8.65
2018-06-16T09:25:23.627Z,9.53
2018-06-16T09:27:52.218Z,11.38
2018-06-16T09:30:20.539Z,11.18
2018-06-16T09:32:49.074Z,9.70
2018-06-16T09:35:17.486Z,10.00
2018-06-16T09:37:45.953Z,9.93
2018-06-16T09:40:14.593Z,10.58
2018-06-16T09:42:43.139Z,9.48
2018-06-16T09:45:11.559Z,8.60
2018-06-16T09:47:39.979Z,8.58
2018-06-16T09:50:10.852Z,7.25
2018-06-16T09:52:40.520Z,8.40
2018-06-16T09:55:08.921Z,8.63
2018-06-16T09:57:37.318Z,7.92
2018-06-16T10:00:10.313Z,6.95
2018-06-16T10:02:38.977Z,7.00
2018-06-16T10:05:07.524Z,6.40
2018-06-16T10:07:36.047Z,6.40
2018-06-16T10:10:04.419Z,6.28
2018-06-16T10:12:33.157Z,6.12
2018-06-16T10:15:01.537Z,6.25
2018-06-16T10:17:30.040Z,5.50
2018-06-16T10:20:03.961Z,5.50
2018-06-16T10:22:32.511Z,5.28
2018-06-16T10:25:00.880Z,5.97
2018-06-16T10:27:29.705Z,6.30
2018-06-16T10:29:58.245Z,5.42
2018-06-16T10:32:26.648Z,6.10
2018-06-16T10:34:55.378Z,6.50
2018-06-16T10:37:23.880Z,6.53
2018-06-16T10:39:52.356Z,6.00
2018-06-16T10:42:20.973Z,6.40
2018-06-16T10:44:49.375Z,6.37
2018-06-16T10:47:17.775Z,6.33
2018-06-16T11:48:51.851Z,4.60
2018-06-16T11:51:20.332Z,4.70
2018-06-16T11:53:48.800Z,5.07
2018-06-16T11:56:17.248Z,4.65
2018-06-16T11:58:45.959Z,4.87
2018-06-16T12:01:14.296Z,4.50
2018-06-16T12:03:48.559Z,4.87
2018-06-16T12:06:17.077Z,4.70
2018-06-16T12:08:45.551Z,4.50
2018-06-16T12:11:13.983Z,4.60
2018-06-16T12:13:42.445Z,4.58
2018-06-16T12:16:10.879Z,4.70
2018-06-16T12:18:39.560Z,4.50
2018-06-16T12:21:08.057Z,4.33
2018-06-16T12:23:36.382Z,3.98
2018-06-16T12:26:04.751Z,4.20
2018-06-16T12:28:33.140Z,4.58
2018-06-16T12:31:01.600Z,4.47
2018-06-16T12:33:30.087Z,4.42
2018-06-16T12:35:58.547Z,3.92
2018-06-16T12:38:26.938Z,4.12
2018-06-16T12:40:55.406Z,4.30
2018-06-16T12:43:24.372Z,4.50
2018-06-16T12:45:52.742Z,4.40
2018-06-16T12:48:21.060Z,3.95
2018-06-16T12:50:49.501Z,3.70
2018-06-16T12:53:22.998Z,4.20
2018-06-16T12:55:51.347Z,3.95
2018-06-16T12:58:19.650Z,4.72
2018-06-16T13:00:48.167Z,4.30
2018-06-16T13:03:16.577Z,3.60
2018-06-16T13:05:44.913Z,3.55
2018-06-16T13:08:13.205Z,3.58
2018-06-16T13:10:41.493Z,3.77
2018-06-16T13:13:09.854Z,3.80
2018-06-16T13:18:14.095Z,4.05
2018-06-16T13:20:42.445Z,3.95
2018-06-16T13:23:10.736Z,3.70
2018-06-16T13:25:39.016Z,4.20
2018-06-16T13:28:07.609Z,4.10
2018-06-16T13:30:35.914Z,4.03
2018-06-16T13:33:04.392Z,3.87
2018-06-16T13:35:32.843Z,4.00
2018-06-16T13:38:01.194Z,4.27
2018-06-16T13:40:29.674Z,4.20
2018-06-16T13:42:58.050Z,4.03
2018-06-16T13:45:26.465Z,4.20
2018-06-16T13:47:54.874Z,3.80
2018-06-16T13:50:23.328Z,3.90
2018-06-16T13:52:51.796Z,4.17
2018-06-16T13:55:20.181Z,3.95
2018-06-16T13:57:49.074Z,4.10
2018-06-16T14:00:17.763Z,4.50
2018-06-16T14:02:46.500Z,4.47
2018-06-16T14:05:14.954Z,4.35
2018-06-16T14:07:43.353Z,4.20
2018-06-16T14:10:11.687Z,4.10
2018-06-16T14:12:40.167Z,4.28
2018-06-16T14:15:09.256Z,4.17
2018-06-16T14:17:37.675Z,4.53
2018-06-16T14:20:06.881Z,4.75
2018-06-16T14:22:35.226Z,4.65
2018-06-16T14:25:03.635Z,4.20
2018-06-16T14:27:32.183Z,4.47
2018-06-16T14:30:00.633Z,5.30
2018-06-16T14:32:29.077Z,4.40
2018-06-16T14:34:58.104Z,4.50
2018-06-16T14:37:27.079Z,4.37
2018-06-16T14:39:57.074Z,4.30
2018-06-16T14:42:25.718Z,4.37
2018-06-16T14:44:54.282Z,4.40
2018-06-16T14:47:22.815Z,4.60
2018-06-16T14:49:51.190Z,4.73
2018-06-16T14:52:19.773Z,4.22
2018-06-16T14:54:48.195Z,4.53
2018-06-16T14:57:16.713Z,4.47
2018-06-16T14:59:45.167Z,4.53
2018-06-16T15:02:14.735Z,4.70
2018-06-16T15:04:43.457Z,5.50
2018-06-16T15:07:12.172Z,4.87
2018-06-16T15:09:40.537Z,5.00
2018-06-16T15:12:09.005Z,4.72
2018-06-16T15:14:37.489Z,5.08
2018-06-16T15:17:06.009Z,5.03
2018-06-16T15:19:34.453Z,4.90
2018-06-16T15:22:02.917Z,5.28
2018-06-16T15:24:31.501Z,4.70
2018-06-16T15:26:59.939Z,4.80
2018-06-16T15:29:28.346Z,5.00
2018-06-16T15:31:56.648Z,5.40
2018-06-16T15:34:25.444Z,4.92
2018-06-16T15:36:54.187Z,5.10
2018-06-16T15:39:22.822Z,5.08
2018-06-16T15:41:51.240Z,5.20
2018-06-16T15:44:19.623Z,5.90
2018-06-16T15:46:47.937Z,5.78
2018-06-16T15:49:16.336Z,5.30
2018-06-16T15:51:45.639Z,5.20
2018-06-16T15:54:14.176Z,4.90
2018-06-16T15:56:42.725Z,5.17
2018-06-16T15:59:11.397Z,5.20
2018-06-16T16:01:39.838Z,5.70
2018-06-16T16:04:08.202Z,5.10
2018-06-16T16:06:36.657Z,4.97
2018-06-16T16:09:06.934Z,5.42
2018-06-16T16:11:35.596Z,5.80
2018-06-16T16:14:04.070Z,5.08
2018-06-16T16:16:32.434Z,5.28
2018-06-16T16:19:00.873Z,5.37
2018-06-16T16:21:29.416Z,5.15
2018-06-16T16:23:57.966Z,5.40
2018-06-16T16:26:26.344Z,5.40
2018-06-16T16:28:55.472Z,4.97
2018-06-16T16:31:23.956Z,5.10
2018-06-16T16:33:52.522Z,5.30
2018-06-16T16:36:21.232Z,5.72
2018-06-16T16:38:49.703Z,5.40
2018-06-16T16:41:18.117Z,5.30
2018-06-16T16:43:47.074Z,5.45
2018-06-16T16:46:15.547Z,5.20
2018-06-16T16:48:44.092Z,5.05
2018-06-16T16:51:12.838Z,5.15
2018-06-16T16:53:41.783Z,4.90
2018-06-16T16:56:10.222Z,5.33
2018-06-16T16:58:38.582Z,5.20
2018-06-16T17:01:07.383Z,5.00
2018-06-16T17:03:35.861Z,4.83
2018-06-16T17:06:04.317Z,5.13
2018-06-16T17:08:33.392Z,5.30
2018-06-16T17:11:02.775Z,4.97
2018-06-16T17:13:31.319Z,5.30
2018-06-16T17:15:59.845Z,5.22
2018-06-16T17:18:28.620Z,5.65
2018-06-16T17:20:57.122Z,5.83
2018-06-16T17:23:25.583Z,5.20
2018-06-16T17:25:54.023Z,5.60
2018-06-16T17:28:22.594Z,5.42
2018-06-16T17:30:51.046Z,5.55
2018-06-16T17:33:19.645Z,5.60
2018-06-16T17:35:48.454Z,5.58
2018-06-16T17:38:16.957Z,5.58
2018-06-16T17:40:45.434Z,6.00
2018-06-16T17:43:13.846Z,5.60
2018-06-16T17:45:42.304Z,7.62
2018-06-16T17:48:10.971Z,6.12
2018-06-16T17:50:39.441Z,6.03
2018-06-16T17:53:08.141Z,6.30
2018-06-16T17:55:36.575Z,5.92
2018-06-16T17:58:05.007Z,5.67
2018-06-16T18:00:33.728Z,5.53
2018-06-16T18:03:02.248Z,5.83
2018-06-16T18:05:30.749Z,5.47
2018-06-16T18:07:59.205Z,5.67
2018-06-16T18:10:27.794Z,5.45
2018-06-16T18:12:56.472Z,5.40
2018-06-16T18:15:24.888Z,6.12
2018-06-16T18:17:53.429Z,6.00
2018-06-16T18:20:22.054Z,5.60
2018-06-16T18:22:50.676Z,5.72
2018-06-16T18:25:19.660Z,5.80
2018-06-16T18:27:48.276Z,5.78
2018-06-16T18:30:16.890Z,6.08
2018-06-16T18:32:46.043Z,5.78
2018-06-16T18:35:14.554Z,6.10
2018-06-16T18:37:43.120Z,6.45
2018-06-16T18:40:11.641Z,6.05
2018-06-16T18:42:40.162Z,6.37
2018-06-16T18:45:08.659Z,7.22
2018-06-16T18:47:37.434Z,6.25
2018-06-16T18:50:05.910Z,6.10
2018-06-16T18:52:34.409Z,6.47
2018-06-16T18:55:04.043Z,6.10
2018-06-16T18:57:33.099Z,6.10
2018-06-16T19:00:02.047Z,6.22
2018-06-16T19:02:31.171Z,6.05
2018-06-16T19:04:59.884Z,6.20
2018-06-16T19:07:28.622Z,6.28
2018-06-16T19:09:57.579Z,6.00
2018-06-16T19:12:26.144Z,5.95
2018-06-16T19:14:54.548Z,5.83
2018-06-16T19:17:23.487Z,6.75
2018-06-16T19:19:51.884Z,6.50
2018-06-16T19:22:20.376Z,6.60
2018-06-16T19:24:48.874Z,6.03
2018-06-16T19:27:17.279Z,6.60
2018-06-16T19:29:45.791Z,6.40
2018-06-16T19:32:14.481Z,6.53
2018-06-16T19:34:42.974Z,6.35
2018-06-16T19:37:11.360Z,6.60
2018-06-16T19:39:39.738Z,6.20
2018-06-16T19:42:08.159Z,6.65
2018-06-16T19:44:36.556Z,6.55
2018-06-16T19:47:05.101Z,6.37
2018-06-16T19:49:33.661Z,6.47
2018-06-16T19:52:02.021Z,6.67
2018-06-16T19:54:30.698Z,6.33
2018-06-16T19:56:59.166Z,6.00
2018-06-16T19:59:27.998Z,6.17
2018-06-16T20:01:56.516Z,6.20
2018-06-16T20:04:25.340Z,6.40
2018-06-16T20:06:53.730Z,6.53
2018-06-16T20:09:22.419Z,6.72
2018-06-16T20:11:50.961Z,6.87
2018-06-16T20:14:19.448Z,6.47
2018-06-16T20:16:47.820Z,7.00
2018-06-16T20:19:16.182Z,7.53
2018-06-16T20:21:44.970Z,7.47
2018-06-16T20:24:13.576Z,7.45
2018-06-16T20:26:42.024Z,7.40
2018-06-16T20:29:10.748Z,7.25
2018-06-16T20:31:39.398Z,7.33
2018-06-16T20:34:07.838Z,7.00
2018-06-16T20:36:36.376Z,7.55
2018-06-16T20:39:06.551Z,7.28
2018-06-16T20:41:34.996Z,7.23
2018-06-16T20:44:03.606Z,7.45
2018-06-16T20:46:32.263Z,7.90
2018-06-16T20:49:00.993Z,7.72
2018-06-16T20:51:29.821Z,8.00
2018-06-16T20:53:58.356Z,8.10
2018-06-16T20:56:26.874Z,8.20
2018-06-16T20:58:56.022Z,7.72
2018-06-16T21:01:24.632Z,8.33
2018-06-16T21:03:53.465Z,8.20
2018-06-16T21:06:22.293Z,8.70
2018-06-16T21:08:50.816Z,8.15
2018-06-16T21:11:19.430Z,8.80
2018-06-16T21:13:48.194Z,8.70
2018-06-16T21:16:16.727Z,9.68
2018-06-16T21:18:45.441Z,9.25
2018-06-16T21:21:14.136Z,8.73
2018-06-16T21:23:43.244Z,8.80
2018-06-16T21:26:12.575Z,8.63
2018-06-16T21:28:41.150Z,8.10
2018-06-16T21:31:10.308Z,8.60
2018-06-16T21:33:38.831Z,8.38
2018-06-16T21:36:07.870Z,8.70
2018-06-16T21:38:36.412Z,10.90
2018-06-16T21:41:05.032Z,8.68
2018-06-16T21:43:33.585Z,8.63
2018-06-16T21:46:02.240Z,9.20
2018-06-16T21:48:30.766Z,8.55
2018-06-16T21:50:59.109Z,8.80
2018-06-16T21:53:27.502Z,8.58
2018-06-16T21:55:55.875Z,9.30
2018-06-16T21:58:24.446Z,9.23
2018-06-16T22:00:52.824Z,8.68
2018-06-16T22:03:21.237Z,8.95
2018-06-16T22:05:49.633Z,8.70
2018-06-16T22:08:25.250Z,9.75
2018-06-16T22:10:53.685Z,8.58
2018-06-16T22:13:22.428Z,8.20
2018-06-16T22:15:50.816Z,9.30
2018-06-16T22:18:19.194Z,8.45
2018-06-16T22:20:47.545Z,8.60
2018-06-16T22:23:16.112Z,8.38
2018-06-16T22:25:44.523Z,8.68
2018-06-16T22:28:12.931Z,8.15
2018-06-16T22:30:41.369Z,8.63
2018-06-16T22:33:09.715Z,8.08
2018-06-16T22:35:38.405Z,8.43
2018-06-16T22:38:06.708Z,8.28
2018-06-16T22:40:35.158Z,8.38
2018-06-16T22:43:03.584Z,8.20
2018-06-16T22:45:31.892Z,8.60
2018-06-16T22:48:00.222Z,8.63
2018-06-16T22:50:28.528Z,8.38
2018-06-16T22:52:57.256Z,8.78
2018-06-16T22:55:26.275Z,9.33
2018-06-16T22:57:56.170Z,9.45
2018-06-16T23:00:26.346Z,8.48
2018-06-16T23:02:54.994Z,8.87
2018-06-16T23:05:23.436Z,9.00
2018-06-16T23:07:52.282Z,10.05
2018-06-16T23:10:20.596Z,9.10
2018-06-16T23:12:48.978Z,9.00
2018-06-16T23:15:17.486Z,9.77
2018-06-16T23:17:46.238Z,10.40
2018-06-16T23:20:14.811Z,10.75
2018-06-16T23:22:43.168Z,10.78
2018-06-16T23:25:11.560Z,10.75
2018-06-16T23:27:39.912Z,10.53
2018-06-16T23:30:08.268Z,10.60
2018-06-16T23:32:41.640Z,9.88
2018-06-16T23:35:10.050Z,10.05
2018-06-16T23:37:38.542Z,9.90
2018-06-16T23:40:06.959Z,11.00
2018-06-16T23:42:35.337Z,10.82
2018-06-16T23:45:04.056Z,10.85
2018-06-16T23:47:32.334Z,10.30
2018-06-16T23:50:00.691Z,11.25
2018-06-16T23:52:47.946Z,10.88
2018-06-16T23:55:16.778Z,10.87
2018-06-16T23:57:45.160Z,10.82
